createdAt,value
2019-02-12T00:00:47.346Z,20.25
2019-02-12T00:01:44.046Z,20.25
2019-02-12T00:02:41.254Z,20.19
2019-02-12T00:03:38.124Z,20.19
2019-02-12T00:04:34.801Z,20.19
2019-02-12T00:05:31.605Z,20.19
2019-02-12T00:06:28.316Z,20.19
2019-02-12T00:07:25.075Z,20.19
2019-02-12T00:08:21.945Z,20.19
2019-02-12T00:09:18.708Z,20.12
2019-02-12T00:10:15.458Z,20.12
2019-02-12T00:11:12.258Z,20.12
2019-02-12T00:12:09.069Z,20.12
2019-02-12T00:13:05.937Z,20.12
2019-02-12T00:14:02.837Z,20.12
2019-02-12T00:14:59.965Z,20.12
2019-02-12T00:15:56.940Z,20.12
2019-02-12T00:16:53.991Z,20.06
2019-02-12T00:17:50.687Z,20.06
2019-02-12T00:18:47.556Z,20.06
2019-02-12T00:19:44.269Z,20.06
2019-02-12T00:20:41.059Z,20.06
2019-02-12T00:21:37.848Z,20.06
2019-02-12T00:22:34.545Z,20.06
2019-02-12T00:23:31.407Z,20.06
2019-02-12T00:24:28.255Z,20.00
2019-02-12T00:25:25.056Z,20.00
2019-02-12T00:26:21.817Z,20.00
2019-02-12T00:27:18.852Z,20.00
2019-02-12T00:28:15.611Z,20.00
2019-02-12T00:29:12.492Z,20.00
2019-02-12T00:30:09.254Z,20.00
2019-02-12T00:31:06.313Z,20.00
2019-02-12T00:32:03.067Z,20.00
2019-02-12T00:32:59.905Z,19.94
2019-02-12T00:33:56.840Z,19.94
2019-02-12T00:34:53.586Z,19.94
2019-02-12T00:35:50.458Z,19.94
2019-02-12T00:36:47.280Z,19.94
2019-02-12T00:37:44.134Z,19.94
2019-02-12T00:38:40.933Z,19.94
2019-02-12T00:39:37.662Z,19.94
2019-02-12T00:40:34.644Z,19.87
2019-02-12T00:41:31.432Z,19.87
2019-02-12T00:42:28.271Z,19.87
2019-02-12T00:43:25.526Z,19.87
2019-02-12T00:44:22.203Z,19.87
2019-02-12T00:45:18.926Z,19.87
2019-02-12T00:46:15.699Z,19.87
2019-02-12T00:47:12.479Z,19.87
2019-02-12T00:48:09.173Z,19.87
2019-02-12T00:49:06.015Z,19.81
2019-02-12T00:50:02.684Z,19.81
2019-02-12T00:50:59.418Z,19.81
2019-02-12T00:51:56.215Z,19.81
2019-02-12T00:52:53.061Z,19.81
2019-02-12T00:53:49.967Z,19.81
2019-02-12T00:54:47.061Z,19.81
2019-02-12T00:55:43.976Z,19.81
2019-02-12T00:56:40.737Z,19.81
2019-02-12T00:57:37.495Z,19.75
2019-02-12T00:58:34.185Z,19.75
2019-02-12T00:59:31.067Z,19.75
2019-02-12T01:00:27.760Z,19.75
2019-02-12T01:01:24.419Z,19.75
2019-02-12T01:02:21.303Z,19.75
2019-02-12T01:03:18.029Z,19.75
2019-02-12T01:04:14.926Z,19.75
2019-02-12T01:05:11.663Z,19.69
2019-02-12T01:06:08.833Z,19.69
2019-02-12T01:07:05.774Z,19.69
2019-02-12T01:08:02.968Z,19.69
2019-02-12T01:08:59.778Z,19.69
2019-02-12T01:09:56.587Z,19.69
2019-02-12T01:10:53.379Z,19.69
2019-02-12T01:11:50.591Z,19.69
2019-02-12T01:12:47.340Z,19.69
2019-02-12T01:13:44.166Z,19.69
2019-02-12T01:14:40.922Z,19.69
2019-02-12T01:15:37.774Z,19.62
2019-02-12T01:16:34.488Z,19.62
2019-02-12T01:17:31.655Z,19.62
2019-02-12T01:18:28.442Z,19.62
2019-02-12T01:19:25.187Z,19.62
2019-02-12T01:20:21.827Z,19.62
2019-02-12T01:21:25.871Z,19.62
2019-02-12T01:22:17.123Z,19.62
2019-02-12T01:23:13.891Z,19.62
2019-02-12T01:24:10.699Z,19.56
2019-02-12T01:25:07.480Z,19.62
2019-02-12T01:26:04.236Z,19.56
2019-02-12T01:27:01.163Z,19.56
2019-02-12T01:27:57.929Z,19.56
2019-02-12T01:28:54.838Z,19.56
2019-02-12T01:29:51.583Z,19.56
2019-02-12T01:30:48.456Z,19.56
2019-02-12T01:31:45.193Z,19.56
2019-02-12T01:32:41.902Z,19.56
2019-02-12T01:33:38.635Z,19.56
2019-02-12T01:34:35.414Z,19.50
2019-02-12T01:35:32.477Z,19.50
2019-02-12T01:36:29.284Z,19.50
2019-02-12T01:37:26.077Z,19.50
2019-02-12T01:38:22.933Z,19.50
2019-02-12T01:39:19.645Z,19.50
2019-02-12T01:40:16.443Z,19.50
2019-02-12T01:41:13.867Z,19.50
2019-02-12T01:42:10.626Z,19.50
2019-02-12T01:43:07.680Z,19.50
2019-02-12T01:44:04.673Z,19.50
2019-02-12T01:45:01.587Z,19.44
2019-02-12T01:45:58.594Z,19.44
2019-02-12T01:46:55.365Z,19.44
2019-02-12T01:47:52.264Z,19.44
2019-02-12T01:48:48.927Z,19.44
2019-02-12T01:49:45.683Z,19.44
2019-02-12T01:50:42.459Z,19.44
2019-02-12T01:51:39.161Z,19.44
2019-02-12T01:52:35.941Z,19.44
2019-02-12T01:53:32.751Z,19.44
2019-02-12T01:54:29.587Z,19.44
2019-02-12T01:55:26.301Z,19.37
2019-02-12T01:56:23.058Z,19.37
2019-02-12T01:57:19.742Z,19.37
2019-02-12T01:58:16.546Z,19.37
2019-02-12T01:59:13.425Z,19.37
2019-02-12T02:00:10.329Z,19.37
2019-02-12T02:01:07.202Z,19.37
2019-02-12T02:02:03.992Z,19.37
2019-02-12T02:03:00.698Z,19.37
2019-02-12T02:03:57.333Z,19.37
2019-02-12T02:04:54.076Z,19.31
2019-02-12T02:05:50.903Z,19.37
2019-02-12T02:06:47.598Z,19.31
2019-02-12T02:07:44.570Z,19.31
2019-02-12T02:08:41.297Z,19.31
2019-02-12T02:09:38.078Z,19.31
2019-02-12T02:10:34.952Z,19.31
2019-02-12T02:11:31.883Z,19.31
2019-02-12T02:12:28.664Z,19.31
2019-02-12T02:13:25.436Z,19.31
2019-02-12T02:14:22.165Z,19.31
2019-02-12T02:15:18.902Z,19.31
2019-02-12T02:16:15.752Z,19.25
2019-02-12T02:17:12.516Z,19.31
2019-02-12T02:18:09.298Z,19.25
2019-02-12T02:19:05.935Z,19.25
2019-02-12T02:20:02.898Z,19.25
2019-02-12T02:20:59.684Z,19.25
2019-02-12T02:21:56.796Z,19.25
2019-02-12T02:22:53.653Z,19.25
2019-02-12T02:23:50.370Z,19.25
2019-02-12T02:24:47.620Z,19.25
2019-02-12T02:25:44.322Z,19.25
2019-02-12T02:26:41.194Z,19.19
2019-02-12T02:27:37.958Z,19.19
2019-02-12T02:28:34.718Z,19.19
2019-02-12T02:29:31.452Z,19.19
2019-02-12T02:30:28.380Z,19.19
2019-02-12T02:31:25.153Z,19.19
2019-02-12T02:32:22.005Z,19.19
2019-02-12T02:33:18.758Z,19.19
2019-02-12T02:34:15.437Z,19.19
2019-02-12T02:35:12.153Z,19.19
2019-02-12T02:36:09.178Z,19.19
2019-02-12T02:37:05.943Z,19.19
2019-02-12T02:38:02.705Z,19.19
2019-02-12T02:38:59.606Z,19.19
2019-02-12T02:39:56.313Z,19.12
2019-02-12T02:40:53.090Z,19.12
2019-02-12T02:41:49.844Z,19.12
2019-02-12T02:42:46.685Z,19.12
2019-02-12T02:43:43.546Z,19.12
2019-02-12T02:44:40.358Z,19.12
2019-02-12T02:45:37.143Z,19.12
2019-02-12T02:46:33.995Z,19.12
2019-02-12T02:47:31.444Z,19.12
2019-02-12T02:48:28.433Z,19.12
2019-02-12T02:49:25.242Z,19.12
2019-02-12T02:50:22.096Z,19.12
2019-02-12T02:51:18.844Z,19.12
2019-02-12T02:52:15.599Z,19.12
2019-02-12T02:53:12.411Z,19.06
2019-02-12T02:54:09.223Z,19.12
2019-02-12T02:55:06.091Z,19.06
2019-02-12T02:56:02.824Z,19.06
2019-02-12T02:56:59.587Z,19.06
2019-02-12T02:57:56.367Z,19.06
2019-02-12T02:58:53.184Z,19.06
2019-02-12T02:59:49.950Z,19.06
2019-02-12T03:00:46.655Z,19.06
2019-02-12T03:01:43.420Z,19.06
2019-02-12T03:02:40.257Z,19.06
2019-02-12T03:03:37.323Z,19.06
2019-02-12T03:04:34.071Z,19.06
2019-02-12T03:05:30.985Z,19.00
2019-02-12T03:06:27.891Z,19.00
2019-02-12T03:07:24.628Z,19.00
2019-02-12T03:08:21.589Z,19.00
2019-02-12T03:09:18.406Z,19.00
2019-02-12T03:10:15.227Z,19.00
2019-02-12T03:11:12.008Z,19.00
2019-02-12T03:12:08.826Z,19.00
2019-02-12T03:13:05.886Z,19.00
2019-02-12T03:14:03.030Z,19.00
2019-02-12T03:15:00.375Z,19.00
2019-02-12T03:15:57.179Z,19.00
2019-02-12T03:16:54.207Z,19.00
2019-02-12T03:17:51.103Z,18.94
2019-02-12T03:18:47.934Z,18.94
2019-02-12T03:19:44.700Z,18.94
2019-02-12T03:20:41.387Z,18.94
2019-02-12T03:21:38.121Z,18.94
2019-02-12T03:22:34.908Z,18.94
2019-02-12T03:23:31.647Z,18.94
2019-02-12T03:24:28.583Z,18.94
2019-02-12T03:25:25.659Z,18.94
2019-02-12T03:26:22.476Z,18.94
2019-02-12T03:27:19.204Z,18.94
2019-02-12T03:28:15.987Z,18.94
2019-02-12T03:29:12.773Z,18.94
2019-02-12T03:30:09.573Z,18.94
2019-02-12T03:31:06.297Z,18.94
2019-02-12T03:32:03.044Z,18.87
2019-02-12T03:33:00.193Z,18.87
2019-02-12T03:33:56.988Z,18.87
2019-02-12T03:34:53.851Z,18.87
2019-02-12T03:35:50.619Z,18.87
2019-02-12T03:36:47.406Z,18.87
2019-02-12T03:37:44.146Z,18.87
2019-02-12T03:38:40.804Z,18.87
2019-02-12T03:39:37.873Z,18.87
2019-02-12T03:40:34.742Z,18.87
2019-02-12T03:41:31.706Z,18.87
2019-02-12T03:42:28.432Z,18.87
2019-02-12T03:43:25.263Z,18.87
2019-02-12T03:44:22.038Z,18.87
2019-02-12T03:45:18.924Z,18.87
2019-02-12T03:46:15.687Z,18.87
2019-02-12T03:47:12.419Z,18.81
2019-02-12T03:48:09.124Z,18.81
2019-02-12T03:49:05.831Z,18.81
2019-02-12T03:50:02.647Z,18.81
2019-02-12T03:50:59.355Z,18.81
2019-02-12T03:51:56.106Z,18.81
2019-02-12T03:52:52.903Z,18.81
2019-02-12T03:53:49.631Z,18.81
2019-02-12T03:54:46.284Z,18.81
2019-02-12T03:55:42.981Z,18.81
2019-02-12T03:56:39.783Z,18.81
2019-02-12T03:57:36.646Z,18.81
2019-02-12T03:58:33.661Z,18.81
2019-02-12T03:59:30.398Z,18.75
2019-02-12T04:00:27.533Z,18.75
2019-02-12T04:01:24.363Z,18.75
2019-02-12T04:02:21.098Z,18.75
2019-02-12T04:03:17.842Z,18.75
2019-02-12T04:04:14.484Z,18.75
2019-02-12T04:05:11.401Z,18.75
2019-02-12T04:06:08.448Z,18.75
2019-02-12T04:07:05.254Z,18.75
2019-02-12T04:08:02.145Z,18.75
2019-02-12T04:08:58.936Z,18.75
2019-02-12T04:09:55.928Z,18.75
2019-02-12T04:10:52.594Z,18.75
2019-02-12T04:11:49.429Z,18.75
2019-02-12T04:12:46.219Z,18.75
2019-02-12T04:13:42.853Z,18.75
2019-02-12T04:14:39.677Z,18.75
2019-02-12T04:15:36.398Z,18.69
2019-02-12T04:16:33.209Z,18.69
2019-02-12T04:17:29.989Z,18.69
2019-02-12T04:18:26.677Z,18.69
2019-02-12T04:19:23.464Z,18.69
2019-02-12T04:20:20.199Z,18.69
2019-02-12T04:21:16.883Z,18.69
2019-02-12T04:22:22.320Z,18.69
2019-02-12T04:23:12.423Z,18.69
2019-02-12T04:24:09.335Z,18.69
2019-02-12T04:25:06.102Z,18.69
2019-02-12T04:26:02.897Z,18.69
2019-02-12T04:26:59.706Z,18.69
2019-02-12T04:27:56.329Z,18.69
2019-02-12T04:28:53.116Z,18.69
2019-02-12T04:29:49.865Z,18.69
2019-02-12T04:30:46.661Z,18.69
2019-02-12T04:31:43.527Z,18.62
2019-02-12T04:32:40.287Z,18.62
2019-02-12T04:33:37.001Z,18.62
2019-02-12T04:34:33.824Z,18.62
2019-02-12T04:35:30.709Z,18.62
2019-02-12T04:36:27.366Z,18.62
2019-02-12T04:37:24.102Z,18.62
2019-02-12T04:38:20.850Z,18.62
2019-02-12T04:39:17.549Z,18.62
2019-02-12T04:40:14.451Z,18.62
2019-02-12T04:41:11.222Z,18.62
2019-02-12T04:42:08.061Z,18.62
2019-02-12T04:43:04.931Z,18.62
2019-02-12T04:44:01.863Z,18.62
2019-02-12T04:44:58.613Z,18.62
2019-02-12T04:45:55.265Z,18.62
2019-02-12T04:46:51.995Z,18.62
2019-02-12T04:47:48.943Z,18.62
2019-02-12T04:48:45.947Z,18.62
2019-02-12T04:49:42.741Z,18.62
2019-02-12T04:50:39.470Z,18.56
2019-02-12T04:51:36.178Z,18.56
2019-02-12T04:52:32.833Z,18.56
2019-02-12T04:53:29.778Z,18.56
2019-02-12T04:54:26.523Z,18.56
2019-02-12T04:55:23.238Z,18.56
2019-02-12T04:56:20.080Z,18.56
2019-02-12T04:57:16.839Z,18.25
2019-02-12T04:58:13.699Z,17.75
2019-02-12T04:59:10.987Z,17.62
2019-02-12T05:00:07.769Z,17.69
2019-02-12T05:01:04.484Z,18.62
2019-02-12T05:02:01.205Z,20.50
2019-02-12T05:02:58.075Z,23.00
2019-02-12T05:03:54.826Z,25.62
2019-02-12T05:04:51.602Z,27.81
2019-02-12T05:05:48.829Z,29.56
2019-02-12T05:06:45.619Z,30.81
2019-02-12T05:07:42.415Z,31.69
2019-02-12T05:08:39.267Z,32.31
2019-02-12T05:09:36.164Z,32.81
2019-02-12T05:10:32.879Z,33.13
2019-02-12T05:11:29.780Z,33.44
2019-02-12T05:12:26.591Z,33.63
2019-02-12T05:13:23.352Z,33.88
2019-02-12T05:14:20.274Z,34.06
2019-02-12T05:15:17.148Z,34.31
2019-02-12T05:16:13.882Z,34.56
2019-02-12T05:17:10.727Z,34.75
2019-02-12T05:18:07.512Z,35.00
2019-02-12T05:19:04.521Z,35.19
2019-02-12T05:20:01.386Z,35.44
2019-02-12T05:20:58.144Z,35.63
2019-02-12T05:21:54.896Z,35.81
2019-02-12T05:22:51.563Z,36.00
2019-02-12T05:23:48.345Z,36.19
2019-02-12T05:24:45.094Z,36.38
2019-02-12T05:25:41.823Z,36.56
2019-02-12T05:26:38.482Z,36.69
2019-02-12T05:27:35.235Z,36.88
2019-02-12T05:28:32.115Z,37.00
2019-02-12T05:29:28.900Z,37.19
2019-02-12T05:30:25.687Z,37.31
2019-02-12T05:31:22.618Z,37.44
2019-02-12T05:32:19.351Z,37.50
2019-02-12T05:33:16.190Z,37.63
2019-02-12T05:34:12.992Z,37.75
2019-02-12T05:35:10.154Z,37.88
2019-02-12T05:36:06.985Z,38.00
2019-02-12T05:37:03.718Z,38.19
2019-02-12T05:38:00.431Z,38.31
2019-02-12T05:38:57.177Z,38.44
2019-02-12T05:39:53.926Z,38.56
2019-02-12T05:40:50.647Z,38.75
2019-02-12T05:41:47.299Z,38.88
2019-02-12T05:42:44.043Z,39.06
2019-02-12T05:43:40.857Z,39.25
2019-02-12T05:44:37.839Z,39.25
2019-02-12T05:45:34.733Z,39.06
2019-02-12T05:46:31.415Z,38.81
2019-02-12T05:47:28.072Z,38.63
2019-02-12T05:48:25.082Z,38.44
2019-02-12T05:49:21.948Z,38.31
2019-02-12T05:50:18.701Z,38.19
2019-02-12T05:51:15.536Z,38.13
2019-02-12T05:52:12.288Z,38.06
2019-02-12T05:53:09.231Z,37.94
2019-02-12T05:54:06.042Z,37.88
2019-02-12T05:55:03.094Z,37.88
2019-02-12T05:55:59.862Z,37.81
2019-02-12T05:56:56.694Z,37.69
2019-02-12T05:57:53.531Z,37.31
2019-02-12T05:58:50.475Z,36.63
2019-02-12T05:59:47.276Z,35.50
2019-02-12T06:00:44.210Z,34.13
2019-02-12T06:01:41.055Z,32.69
2019-02-12T06:02:37.912Z,31.75
2019-02-12T06:03:34.580Z,31.87
2019-02-12T06:04:31.472Z,33.06
2019-02-12T06:05:31.164Z,34.50
2019-02-12T06:06:27.899Z,36.00
2019-02-12T06:07:24.573Z,37.13
2019-02-12T06:08:21.358Z,38.06
2019-02-12T06:09:18.139Z,38.75
2019-02-12T06:10:14.898Z,39.25
2019-02-12T06:11:11.678Z,39.38
2019-02-12T06:12:08.556Z,39.19
2019-02-12T06:13:05.428Z,38.94
2019-02-12T06:14:02.342Z,38.75
2019-02-12T06:14:59.104Z,38.56
2019-02-12T06:15:55.842Z,38.44
2019-02-12T06:16:52.714Z,38.31
2019-02-12T06:17:49.538Z,38.19
2019-02-12T06:18:46.350Z,38.13
2019-02-12T06:19:43.035Z,38.06
2019-02-12T06:20:39.929Z,38.00
2019-02-12T06:21:36.820Z,37.94
2019-02-12T06:22:33.552Z,37.94
2019-02-12T06:23:30.305Z,37.75
2019-02-12T06:24:27.135Z,37.50
2019-02-12T06:25:23.966Z,36.81
2019-02-12T06:26:20.843Z,35.75
2019-02-12T06:27:17.594Z,34.31
2019-02-12T06:28:14.335Z,32.88
2019-02-12T06:29:11.339Z,32.00
2019-02-12T06:30:08.145Z,32.25
2019-02-12T06:31:05.149Z,33.50
2019-02-12T06:32:02.115Z,35.00
2019-02-12T06:33:07.340Z,36.44
2019-02-12T06:33:57.539Z,37.69
2019-02-12T06:34:54.226Z,38.69
2019-02-12T06:35:51.071Z,39.31
2019-02-12T06:36:47.742Z,39.44
2019-02-12T06:37:44.491Z,39.31
2019-02-12T06:38:41.256Z,39.06
2019-02-12T06:39:38.031Z,38.88
2019-02-12T06:40:34.718Z,38.69
2019-02-12T06:41:31.390Z,38.56
2019-02-12T06:42:28.171Z,38.38
2019-02-12T06:43:24.802Z,38.31
2019-02-12T06:44:21.672Z,38.19
2019-02-12T06:45:18.400Z,38.13
2019-02-12T06:46:15.175Z,38.06
2019-02-12T06:47:12.239Z,38.00
2019-02-12T06:48:09.110Z,37.75
2019-02-12T06:49:06.404Z,37.25
2019-02-12T06:50:03.375Z,36.38
2019-02-12T06:51:00.437Z,35.19
2019-02-12T06:51:57.558Z,33.81
2019-02-12T06:52:54.273Z,32.56
2019-02-12T06:53:50.977Z,32.06
2019-02-12T06:54:48.054Z,32.69
2019-02-12T06:55:44.772Z,34.13
2019-02-12T06:56:41.635Z,35.63
2019-02-12T06:57:38.439Z,37.06
2019-02-12T06:58:35.689Z,38.19
2019-02-12T06:59:32.496Z,39.06
2019-02-12T07:00:29.522Z,39.31
2019-02-12T07:01:26.606Z,39.25
2019-02-12T07:02:23.423Z,39.06
2019-02-12T07:03:20.316Z,38.88
2019-02-12T07:04:17.142Z,38.69
2019-02-12T07:05:13.928Z,38.56
2019-02-12T07:06:10.731Z,38.44
2019-02-12T07:07:07.649Z,38.31
2019-02-12T07:08:04.381Z,38.19
2019-02-12T07:09:01.251Z,38.13
2019-02-12T07:09:58.032Z,38.06
2019-02-12T07:10:54.940Z,37.88
2019-02-12T07:11:51.767Z,37.63
2019-02-12T07:12:48.573Z,37.06
2019-02-12T07:13:45.376Z,36.13
2019-02-12T07:14:42.509Z,34.88
2019-02-12T07:15:39.512Z,33.44
2019-02-12T07:16:36.351Z,32.31
2019-02-12T07:17:33.120Z,32.19
2019-02-12T07:18:29.912Z,33.25
2019-02-12T07:19:26.789Z,34.75
2019-02-12T07:20:23.647Z,36.31
2019-02-12T07:21:20.422Z,37.69
2019-02-12T07:22:17.315Z,38.75
2019-02-12T07:23:21.162Z,39.13
2019-02-12T07:24:12.991Z,39.13
2019-02-12T07:25:09.784Z,39.00
2019-02-12T07:26:06.495Z,38.81
2019-02-12T07:27:03.243Z,38.69
2019-02-12T07:28:00.218Z,38.50
2019-02-12T07:28:57.028Z,38.38
2019-02-12T07:29:53.837Z,38.25
2019-02-12T07:30:50.739Z,38.13
2019-02-12T07:31:47.619Z,38.00
2019-02-12T07:32:44.487Z,37.75
2019-02-12T07:33:41.429Z,37.31
2019-02-12T07:34:38.370Z,36.50
2019-02-12T07:35:35.216Z,35.38
2019-02-12T07:36:32.011Z,34.06
2019-02-12T07:37:28.776Z,32.75
2019-02-12T07:38:25.505Z,32.13
2019-02-12T07:39:22.228Z,32.69
2019-02-12T07:40:19.016Z,34.06
2019-02-12T07:41:20.167Z,35.75
2019-02-12T07:42:14.491Z,37.31
2019-02-12T07:43:11.349Z,38.44
2019-02-12T07:44:08.045Z,38.94
2019-02-12T07:45:04.808Z,39.06
2019-02-12T07:46:01.529Z,39.00
2019-02-12T07:46:58.276Z,38.81
2019-02-12T07:47:54.955Z,38.63
2019-02-12T07:48:51.635Z,38.44
2019-02-12T07:49:48.410Z,38.31
2019-02-12T07:50:45.171Z,38.19
2019-02-12T07:51:42.034Z,38.00
2019-02-12T07:52:38.751Z,37.75
2019-02-12T07:53:35.665Z,37.31
2019-02-12T07:54:32.447Z,36.56
2019-02-12T07:55:29.241Z,35.56
2019-02-12T07:56:26.043Z,34.31
2019-02-12T07:57:22.928Z,33.06
2019-02-12T07:58:19.695Z,32.19
2019-02-12T07:59:16.590Z,32.44
2019-02-12T08:00:13.371Z,33.75
2019-02-12T08:01:10.153Z,35.38
2019-02-12T08:02:06.924Z,37.00
2019-02-12T08:03:03.687Z,38.25
2019-02-12T08:04:00.538Z,38.81
2019-02-12T08:04:57.514Z,38.88
2019-02-12T08:05:54.486Z,38.81
2019-02-12T08:06:51.335Z,38.69
2019-02-12T08:07:48.078Z,38.50
2019-02-12T08:08:44.822Z,38.38
2019-02-12T08:09:42.055Z,38.25
2019-02-12T08:10:38.823Z,38.06
2019-02-12T08:11:35.662Z,37.75
2019-02-12T08:13:50.610Z,36.25
2019-02-12T08:14:47.510Z,35.19
2019-02-12T08:15:44.276Z,34.00
2019-02-12T08:16:41.141Z,32.88
2019-02-12T08:17:37.979Z,32.19
2019-02-12T08:18:34.783Z,32.63
2019-02-12T08:19:31.543Z,34.00
2019-02-12T08:20:28.308Z,35.69
2019-02-12T08:21:25.095Z,37.25
2019-02-12T08:22:21.977Z,38.38
2019-02-12T08:23:18.682Z,38.88
2019-02-12T08:24:15.523Z,38.88
2019-02-12T08:25:12.231Z,38.81
2019-02-12T08:26:09.036Z,38.63
2019-02-12T08:27:05.862Z,38.50
2019-02-12T08:28:02.960Z,38.31
2019-02-12T08:29:00.303Z,38.13
2019-02-12T08:29:57.117Z,37.88
2019-02-12T08:30:53.938Z,37.44
2019-02-12T08:31:50.694Z,36.81
2019-02-12T08:32:47.527Z,36.00
2019-02-12T08:33:44.386Z,35.00
2019-02-12T08:34:41.533Z,33.88
2019-02-12T08:35:38.418Z,32.81
2019-02-12T08:36:35.159Z,32.19
2019-02-12T08:37:32.370Z,32.63
2019-02-12T08:38:29.203Z,34.00
2019-02-12T08:39:26.253Z,35.69
2019-02-12T08:40:23.215Z,37.19
2019-02-12T08:41:20.128Z,38.31
2019-02-12T08:42:16.923Z,38.81
2019-02-12T08:43:13.846Z,38.81
2019-02-12T08:44:10.732Z,38.75
2019-02-12T08:45:07.571Z,38.56
2019-02-12T08:46:04.322Z,38.38
2019-02-12T08:47:01.085Z,38.25
2019-02-12T08:47:57.824Z,38.00
2019-02-12T08:48:54.567Z,37.63
2019-02-12T08:49:51.501Z,37.06
2019-02-12T08:50:48.327Z,36.38
2019-02-12T08:51:45.185Z,35.50
2019-02-12T08:52:42.126Z,34.50
2019-02-12T08:53:38.927Z,33.44
2019-02-12T08:54:35.658Z,32.50
2019-02-12T08:55:32.459Z,32.19
2019-02-12T08:56:29.299Z,33.00
2019-02-12T08:57:26.082Z,34.50
2019-02-12T08:58:23.008Z,36.13
2019-02-12T08:59:19.911Z,37.63
2019-02-12T09:00:16.960Z,38.50
2019-02-12T09:01:13.760Z,38.81
2019-02-12T09:02:10.463Z,38.81
2019-02-12T09:03:07.577Z,38.63
2019-02-12T09:04:04.399Z,38.50
2019-02-12T09:05:01.142Z,38.31
2019-02-12T09:05:58.170Z,38.06
2019-02-12T09:06:55.010Z,37.75
2019-02-12T09:07:51.948Z,37.31
2019-02-12T09:08:48.747Z,36.69
2019-02-12T09:09:45.585Z,35.88
2019-02-12T09:10:42.346Z,34.94
2019-02-12T09:11:39.082Z,33.81
2019-02-12T09:12:35.854Z,32.75
2019-02-12T09:13:32.627Z,32.13
2019-02-12T09:14:29.292Z,32.56
2019-02-12T09:15:26.092Z,33.88
2019-02-12T09:16:22.847Z,35.44
2019-02-12T09:17:19.667Z,36.94
2019-02-12T09:18:16.446Z,38.06
2019-02-12T09:19:13.271Z,38.50
2019-02-12T09:20:10.196Z,38.50
2019-02-12T09:21:06.925Z,38.38
2019-02-12T09:22:03.842Z,38.25
2019-02-12T09:23:00.616Z,38.00
2019-02-12T09:24:00.345Z,37.75
2019-02-12T09:24:56.055Z,37.38
2019-02-12T09:25:52.711Z,36.88
2019-02-12T09:26:49.598Z,36.19
2019-02-12T09:27:46.307Z,35.38
2019-02-12T09:28:43.057Z,34.44
2019-02-12T09:29:39.953Z,33.44
2019-02-12T09:30:36.990Z,32.44
2019-02-12T09:31:33.967Z,31.94
2019-02-12T09:32:30.737Z,32.50
2019-02-12T09:33:27.499Z,33.81
2019-02-12T09:34:24.260Z,35.38
2019-02-12T09:35:20.931Z,36.81
2019-02-12T09:36:17.680Z,37.94
2019-02-12T09:37:14.442Z,38.38
2019-02-12T09:38:11.299Z,38.44
2019-02-12T09:39:08.093Z,38.31
2019-02-12T09:40:04.822Z,38.13
2019-02-12T09:41:01.630Z,37.94
2019-02-12T09:41:58.358Z,37.63
2019-02-12T09:42:57.054Z,37.25
2019-02-12T09:43:53.928Z,36.69
2019-02-12T09:44:50.858Z,36.00
2019-02-12T09:45:47.767Z,35.13
2019-02-12T09:46:44.541Z,34.13
2019-02-12T09:47:41.344Z,33.13
2019-02-12T09:48:38.095Z,32.25
2019-02-12T09:49:34.839Z,32.06
2019-02-12T09:50:31.747Z,32.88
2019-02-12T09:51:28.804Z,34.38
2019-02-12T09:52:25.782Z,35.94
2019-02-12T09:53:22.551Z,37.31
2019-02-12T09:54:19.435Z,38.19
2019-02-12T09:55:16.167Z,38.38
2019-02-12T09:56:12.974Z,38.13
2019-02-12T09:57:09.794Z,37.56
2019-02-12T09:58:06.645Z,36.75
2019-02-12T09:59:03.667Z,35.69
2019-02-12T10:00:00.359Z,34.56
2019-02-12T10:00:57.118Z,33.50
2019-02-12T10:01:53.990Z,32.63
2019-02-12T10:02:50.787Z,31.87
2019-02-12T10:03:47.941Z,31.31
2019-02-12T10:04:44.732Z,30.69
2019-02-12T10:05:41.535Z,30.12
2019-02-12T10:06:38.443Z,29.69
2019-02-12T10:07:35.236Z,29.31
2019-02-12T10:08:32.207Z,29.06
2019-02-12T10:09:29.036Z,28.87
2019-02-12T10:10:25.863Z,28.69
2019-02-12T10:11:22.654Z,28.56
2019-02-12T10:12:19.385Z,28.44
2019-02-12T10:13:16.071Z,28.38
2019-02-12T10:14:12.824Z,28.25
2019-02-12T10:15:09.587Z,28.19
2019-02-12T10:16:06.334Z,28.12
2019-02-12T10:17:03.103Z,28.06
2019-02-12T10:17:59.896Z,28.00
2019-02-12T10:18:56.689Z,27.94
2019-02-12T10:25:09.912Z,27.50
2019-02-12T10:26:06.799Z,27.44
2019-02-12T10:27:03.528Z,27.37
2019-02-12T10:28:00.883Z,27.25
2019-02-12T10:28:58.327Z,27.19
2019-02-12T10:29:55.114Z,27.13
2019-02-12T10:30:51.918Z,27.06
2019-02-12T10:31:48.675Z,27.00
2019-02-12T10:32:45.483Z,27.00
2019-02-12T10:33:42.177Z,26.94
2019-02-12T10:34:39.055Z,26.87
2019-02-12T10:35:36.024Z,26.81
2019-02-12T10:36:32.815Z,26.75
2019-02-12T10:37:29.633Z,26.69
2019-02-12T10:38:26.391Z,26.62
2019-02-12T10:39:23.125Z,26.56
2019-02-12T10:40:19.917Z,26.56
2019-02-12T10:41:16.637Z,26.50
2019-02-12T10:42:13.353Z,26.44
2019-02-12T10:43:10.237Z,26.37
2019-02-12T10:44:07.033Z,26.31
2019-02-12T10:45:03.860Z,26.25
2019-02-12T10:46:01.160Z,26.25
2019-02-12T10:46:57.963Z,26.19
2019-02-12T10:47:54.875Z,26.12
2019-02-12T10:48:52.731Z,26.06
2019-02-12T10:49:49.620Z,26.06
2019-02-12T10:50:46.593Z,26.00
2019-02-12T10:51:43.359Z,25.94
2019-02-12T10:52:40.168Z,25.88
2019-02-12T10:53:36.911Z,25.88
2019-02-12T10:54:33.732Z,25.81
2019-02-12T10:55:30.451Z,25.75
2019-02-12T10:56:27.186Z,25.75
2019-02-12T10:57:23.997Z,25.69
2019-02-12T10:58:20.852Z,25.62
2019-02-12T10:59:17.589Z,25.62
2019-02-12T11:00:14.436Z,25.56
2019-02-12T11:01:11.273Z,25.50
2019-02-12T11:02:08.260Z,25.50
2019-02-12T11:03:05.032Z,25.44
2019-02-12T11:04:01.874Z,25.44
2019-02-12T11:04:58.806Z,25.37
2019-02-12T11:05:55.596Z,25.37
2019-02-12T11:06:52.609Z,25.31
2019-02-12T11:07:49.302Z,25.31
2019-02-12T11:08:45.990Z,25.25
2019-02-12T11:09:42.873Z,25.19
2019-02-12T11:10:39.703Z,25.19
2019-02-12T11:11:36.508Z,25.12
2019-02-12T11:12:33.500Z,25.12
2019-02-12T11:13:30.741Z,25.06
2019-02-12T11:14:27.534Z,25.06
2019-02-12T11:15:24.538Z,25.00
2019-02-12T11:16:21.311Z,25.00
2019-02-12T11:17:18.047Z,24.94
2019-02-12T11:18:14.737Z,24.94
2019-02-12T11:19:11.628Z,24.87
2019-02-12T11:20:08.485Z,24.87
2019-02-12T11:21:11.643Z,24.81
2019-02-12T11:22:04.830Z,24.81
2019-02-12T11:23:02.074Z,24.75
2019-02-12T11:23:59.331Z,24.75
2019-02-12T11:24:56.119Z,24.75
2019-02-12T11:25:52.906Z,24.69
2019-02-12T11:26:49.849Z,24.69
2019-02-12T11:27:46.778Z,24.63
2019-02-12T11:28:43.588Z,24.63
2019-02-12T11:29:40.324Z,24.56
2019-02-12T11:30:37.412Z,24.56
2019-02-12T11:31:34.475Z,24.50
2019-02-12T11:32:31.242Z,24.50
2019-02-12T11:33:28.127Z,24.50
2019-02-12T11:34:24.894Z,24.44
2019-02-12T11:35:21.730Z,24.44
2019-02-12T11:36:18.510Z,24.37
2019-02-12T11:37:18.533Z,24.37
2019-02-12T11:38:15.612Z,24.31
2019-02-12T11:39:12.474Z,24.31
2019-02-12T11:40:09.189Z,24.31
2019-02-12T11:41:06.025Z,24.31
2019-02-12T11:42:02.946Z,24.25
2019-02-12T11:42:59.766Z,24.19
2019-02-12T11:43:56.901Z,24.19
2019-02-12T11:44:53.761Z,24.19
2019-02-12T11:45:50.498Z,24.12
2019-02-12T11:46:47.814Z,24.12
2019-02-12T11:47:44.591Z,24.12
2019-02-12T11:48:41.429Z,24.06
2019-02-12T11:49:38.204Z,24.06
2019-02-12T11:50:34.950Z,24.06
2019-02-12T11:51:31.763Z,24.00
2019-02-12T11:52:29.085Z,24.00
2019-02-12T11:53:26.075Z,23.94
2019-02-12T11:54:23.083Z,23.94
2019-02-12T11:55:19.831Z,23.94
2019-02-12T11:56:16.749Z,24.06
2019-02-12T11:57:13.797Z,24.25
2019-02-12T11:58:10.657Z,24.56
2019-02-12T11:59:07.484Z,25.06
2019-02-12T12:00:04.741Z,25.94
2019-02-12T12:01:02.684Z,27.62
2019-02-12T12:01:59.480Z,29.87
2019-02-12T12:02:56.403Z,31.94
2019-02-12T12:03:53.204Z,33.63
2019-02-12T12:04:50.044Z,34.88
2019-02-12T12:05:47.086Z,35.81
2019-02-12T12:06:43.857Z,36.56
2019-02-12T12:07:40.610Z,37.13
2019-02-12T12:08:37.630Z,37.63
2019-02-12T12:09:34.358Z,38.00
2019-02-12T12:10:31.734Z,38.31
2019-02-12T12:11:28.514Z,38.56
2019-02-12T12:12:26.010Z,38.44
2019-02-12T12:13:22.785Z,38.31
2019-02-12T12:14:19.724Z,38.13
2019-02-12T12:15:16.580Z,37.94
2019-02-12T12:16:13.293Z,37.75
2019-02-12T12:17:10.035Z,37.56
2019-02-12T12:18:06.816Z,37.44
2019-02-12T12:19:03.621Z,37.31